Time;durP1;ratioP1;P1;durP2;ratioP2;P2;SDS_P1;SDS_P2;PMS_P1;PMS_P2;Temp;Humidity;BMP_temperature;BMP_pressure;BME280_temperature;BME280_humidity;BME280_pressure;Samples;Min_cycle;Max_cycle;Signal;HPM_P1;HPM_P2
2023/06/11 00:00:22;;;;;;;11.23;7.40;;;;;;;;;;4989561;28;20081;-76
2023/06/11 00:02:53;;;;;;;9.70;7.55;;;;;;;;;;4992978;28;20061;-74
2023/06/11 00:05:20;;;;;;;11.38;7.85;;;;;;;;;;4991748;28;20045;-76
2023/06/11 00:07:48;;;;;;;11.02;7.40;;;;;;;;;;4982027;28;20048;-74
2023/06/11 00:10:15;;;;;;;13.65;7.70;;;;;;;;;;4984456;28;20058;-75
2023/06/11 00:12:42;;;;;;;10.70;7.20;;;;;;;;;;5001502;28;20524;-74
2023/06/11 00:15:08;;;;;;;15.45;7.80;;;;;;;;;;4982299;28;20539;-74
2023/06/11 00:17:34;;;;;;;11.82;7.50;;;;;;;;;;4978653;28;20050;-75
2023/06/11 00:20:08;;;;;;;9.63;7.25;;;;;;;;;;4987656;28;20054;-74
2023/06/11 00:22:34;;;;;;;11.82;7.35;;;;;;;;;;4979068;28;20051;-75
2023/06/11 00:25:01;;;;;;;10.85;7.40;;;;;;;;;;4978510;28;20051;-75
2023/06/11 00:27:27;;;;;;;12.10;7.45;;;;;;;;;;4995369;28;20046;-74
2023/06/11 00:29:54;;;;;;;10.43;6.75;;;;;;;;;;4995737;28;20527;-74
2023/06/11 00:32:20;;;;;;;12.88;7.43;;;;;;;;;;4995246;28;20050;-74
2023/06/11 00:34:47;;;;;;;10.85;8.00;;;;;;;;;;4995894;28;20496;-74
2023/06/11 00:37:13;;;;;;;12.75;8.32;;;;;;;;;;4982248;28;20417;-74
2023/06/11 00:39:39;;;;;;;15.43;9.02;;;;;;;;;;4981042;28;20074;-75
2023/06/11 00:42:10;;;;;;;11.30;9.15;;;;;;;;;;4990486;28;20049;-74
2023/06/11 00:44:36;;;;;;;12.60;9.17;;;;;;;;;;4988669;28;20042;-75
2023/06/11 00:47:02;;;;;;;11.40;8.18;;;;;;;;;;4978369;28;20104;-75
2023/06/11 00:49:29;;;;;;;11.60;7.80;;;;;;;;;;4985124;28;20043;-74
2023/06/11 00:51:55;;;;;;;11.40;7.80;;;;;;;;;;4982417;28;20362;-74
2023/06/11 00:54:21;;;;;;;12.55;8.13;;;;;;;;;;4984333;28;20085;-75
2023/06/11 00:56:47;;;;;;;11.25;7.55;;;;;;;;;;4995083;28;20061;-74
2023/06/11 00:59:15;;;;;;;9.75;8.40;;;;;;;;;;4995744;28;20077;-74
2023/06/11 01:02:01;;;;;;;13.35;8.10;;;;;;;;;;4989886;28;20050;-75
2023/06/11 01:04:32;;;;;;;12.95;8.30;;;;;;;;;;4980237;28;20065;-75
2023/06/11 01:06:59;;;;;;;;;;;;;;;;;;4980428;28;20047;-74
2023/06/11 01:09:26;;;;;;;12.18;8.20;;;;;;;;;;4994276;28;19944;-74
2023/06/11 01:11:55;;;;;;;10.32;7.65;;;;;;;;;;4983803;28;20047;-74
2023/06/11 01:14:21;;;;;;;11.70;7.20;;;;;;;;;;4991035;28;20046;-75
2023/06/11 01:17:02;;;;;;;10.43;7.60;;;;;;;;;;4983451;28;20404;-74
2023/06/11 01:19:29;;;;;;;;;;;;;;;;;;4980162;28;20125;-74
2023/06/11 01:21:59;;;;;;;9.45;7.57;;;;;;;;;;4980279;28;19976;-75
2023/06/11 01:24:43;;;;;;;11.77;8.18;;;;;;;;;;4995885;28;20420;-74
2023/06/11 01:27:10;;;;;;;11.68;8.57;;;;;;;;;;4995678;28;20046;-74
2023/06/11 01:29:45;;;;;;;11.18;8.77;;;;;;;;;;4992668;28;20138;-74
2023/06/11 01:32:12;;;;;;;9.93;7.78;;;;;;;;;;4995864;28;20124;-74
2023/06/11 01:34:41;;;;;;;12.00;8.30;;;;;;;;;;4996603;28;20061;-74
2023/06/11 01:37:11;;;;;;;12.35;7.93;;;;;;;;;;4997410;28;20053;-75
2023/06/11 01:39:38;;;;;;;9.27;7.95;;;;;;;;;;4999809;28;20046;-75
2023/06/11 01:42:05;;;;;;;10.27;7.13;;;;;;;;;;4994820;28;20039;-73
2023/06/11 01:44:32;;;;;;;11.82;7.65;;;;;;;;;;4999771;28;20504;-74
2023/06/11 01:46:58;;;;;;;15.82;7.53;;;;;;;;;;4985336;28;20125;-73
2023/06/11 01:49:25;;;;;;;8.80;7.90;;;;;;;;;;4991054;28;20043;-75
2023/06/11 01:51:51;;;;;;;9.40;7.43;;;;;;;;;;4995659;28;20158;-75
2023/06/11 01:54:17;;;;;;;9.73;7.45;;;;;;;;;;4993871;28;20039;-75
2023/06/11 01:56:43;;;;;;;10.00;7.63;;;;;;;;;;4997625;28;20123;-74
2023/06/11 01:59:12;;;;;;;13.25;7.75;;;;;;;;;;4996483;28;20512;-74
2023/06/11 02:01:40;;;;;;;9.10;7.90;;;;;;;;;;4995669;28;20371;-74
2023/06/11 02:04:06;;;;;;;11.38;7.60;;;;;;;;;;4995317;28;20500;-74
2023/06/11 02:06:33;;;;;;;9.38;7.60;;;;;;;;;;4991191;28;20046;-75
2023/06/11 02:08:59;;;;;;;12.43;8.00;;;;;;;;;;4989178;28;20077;-75
2023/06/11 02:11:25;;;;;;;11.70;8.00;;;;;;;;;;4996457;28;20093;-74
2023/06/11 02:13:51;;;;;;;10.10;8.27;;;;;;;;;;4989133;28;20042;-74
2023/06/11 02:16:18;;;;;;;12.93;8.00;;;;;;;;;;4995719;28;20062;-74
2023/06/11 02:18:44;;;;;;;10.27;7.82;;;;;;;;;;4992856;28;20057;-75
2023/06/11 02:21:10;;;;;;;10.00;8.10;;;;;;;;;;5006393;28;20519;-75
2023/06/11 02:23:36;;;;;;;10.00;8.02;;;;;;;;;;4989992;28;20047;-75
2023/06/11 02:26:02;;;;;;;9.23;8.20;;;;;;;;;;4995672;28;20046;-75
2023/06/11 02:28:28;;;;;;;10.70;8.00;;;;;;;;;;4988528;28;20043;-74
2023/06/11 02:30:54;;;;;;;9.85;8.52;;;;;;;;;;4990476;28;20050;-73
2023/06/11 02:33:20;;;;;;;13.05;8.82;;;;;;;;;;4996568;28;20050;-75
2023/06/11 02:35:46;;;;;;;13.32;8.57;;;;;;;;;;4993810;28;20038;-74
2023/06/11 02:38:13;;;;;;;13.02;9.07;;;;;;;;;;4987753;28;20081;-73
2023/06/11 02:40:39;;;;;;;12.73;9.07;;;;;;;;;;4998655;28;20046;-74
2023/06/11 02:43:05;;;;;;;12.20;8.85;;;;;;;;;;4996613;28;20117;-75
2023/06/11 02:45:31;;;;;;;12.48;9.40;;;;;;;;;;4997646;28;20045;-74
2023/06/11 02:47:57;;;;;;;11.77;8.77;;;;;;;;;;4999389;28;20042;-75
2023/06/11 02:50:23;;;;;;;13.38;8.90;;;;;;;;;;4984622;28;20055;-74
2023/06/11 02:52:49;;;;;;;11.85;8.65;;;;;;;;;;4990435;28;20043;-74
2023/06/11 02:55:15;;;;;;;12.50;9.00;;;;;;;;;;4991798;28;20456;-75
2023/06/11 02:57:43;;;;;;;11.63;9.13;;;;;;;;;;4985765;28;20062;-73
2023/06/11 03:00:10;;;;;;;11.85;9.07;;;;;;;;;;4996136;28;20082;-74
2023/06/11 03:02:36;;;;;;;10.98;9.38;;;;;;;;;;4995951;28;20042;-74
2023/06/11 03:05:03;;;;;;;12.10;9.75;;;;;;;;;;4997317;28;20049;-75
2023/06/11 03:07:29;;;;;;;10.68;9.45;;;;;;;;;;4993828;28;20042;-75
2023/06/11 03:09:55;;;;;;;15.90;9.85;;;;;;;;;;4994488;28;20042;-75
2023/06/11 03:12:21;;;;;;;13.40;10.20;;;;;;;;;;4992302;28;20060;-73
2023/06/11 03:14:47;;;;;;;13.35;10.00;;;;;;;;;;4997731;28;20053;-73
2023/06/11 03:17:13;;;;;;;12.88;8.82;;;;;;;;;;4997357;28;20061;-76
2023/06/11 03:19:39;;;;;;;16.40;9.82;;;;;;;;;;4995197;28;20061;-75
2023/06/11 03:22:05;;;;;;;11.77;9.95;;;;;;;;;;4989766;28;20051;-74
2023/06/11 03:24:31;;;;;;;14.07;10.00;;;;;;;;;;4998511;28;20050;-76
2023/06/11 03:26:57;;;;;;;13.25;10.32;;;;;;;;;;4997915;28;20046;-74
2023/06/11 03:29:23;;;;;;;14.15;11.52;;;;;;;;;;4982740;28;20070;-74
2023/06/11 03:31:49;;;;;;;12.38;10.48;;;;;;;;;;4991421;28;20246;-76
2023/06/11 03:34:15;;;;;;;14.90;11.13;;;;;;;;;;4989777;28;20096;-75
2023/06/11 03:36:41;;;;;;;11.27;10.07;;;;;;;;;;4989573;28;20039;-74
2023/06/11 03:39:07;;;;;;;13.48;10.20;;;;;;;;;;4996064;28;20493;-75
2023/06/11 03:41:34;;;;;;;12.63;10.40;;;;;;;;;;4995404;28;20046;-74
2023/06/11 03:44:00;;;;;;;12.80;10.45;;;;;;;;;;4980200;28;20082;-75
2023/06/11 03:46:26;;;;;;;11.82;10.48;;;;;;;;;;4982753;28;20504;-75
2023/06/11 03:48:52;;;;;;;13.88;11.43;;;;;;;;;;4985380;28;20058;-74
2023/06/11 03:51:18;;;;;;;11.65;10.45;;;;;;;;;;4998414;28;20074;-74
2023/06/11 03:53:44;;;;;;;12.38;10.70;;;;;;;;;;4994665;28;20054;-74
2023/06/11 03:56:10;;;;;;;11.85;10.65;;;;;;;;;;4984298;28;20050;-75
2023/06/11 03:58:36;;;;;;;12.38;10.65;;;;;;;;;;4994004;28;20050;-75
2023/06/11 04:01:02;;;;;;;11.60;10.40;;;;;;;;;;4995638;28;20129;-74
2023/06/11 04:03:28;;;;;;;12.40;11.15;;;;;;;;;;4995178;28;20125;-74
2023/06/11 04:05:55;;;;;;;13.68;11.43;;;;;;;;;;4990357;28;20039;-75
2023/06/11 04:08:21;;;;;;;12.43;10.95;;;;;;;;;;4990242;28;20039;-75
2023/06/11 04:10:47;;;;;;;14.98;11.55;;;;;;;;;;4993081;28;20050;-76
2023/06/11 04:13:13;;;;;;;12.40;10.70;;;;;;;;;;4986885;28;20050;-74
2023/06/11 04:15:40;;;;;;;15.50;10.93;;;;;;;;;;4994262;28;20121;-75
2023/06/11 04:18:06;;;;;;;11.93;10.07;;;;;;;;;;4989190;28;20057;-75
2023/06/11 04:20:32;;;;;;;11.23;10.02;;;;;;;;;;4987476;28;20046;-74
2023/06/11 04:22:58;;;;;;;14.80;10.00;;;;;;;;;;4977358;28;20053;-74
2023/06/11 04:25:24;;;;;;;15.73;9.63;;;;;;;;;;4992032;28;20042;-75
2023/06/11 04:27:52;;;;;;;13.65;9.68;;;;;;;;;;4992638;28;20050;-74
2023/06/11 04:30:20;;;;;;;11.98;9.30;;;;;;;;;;4994073;28;20791;-74
2023/06/11 04:32:47;;;;;;;11.68;9.23;;;;;;;;;;4977181;28;20092;-75
2023/06/11 04:35:13;;;;;;;12.65;9.25;;;;;;;;;;4991933;28;20046;-75
2023/06/11 04:37:40;;;;;;;12.13;9.80;;;;;;;;;;4988847;28;20050;-75
2023/06/11 04:40:10;;;;;;;11.35;10.13;;;;;;;;;;4994179;28;20112;-74
2023/06/11 04:42:40;;;;;;;12.67;9.83;;;;;;;;;;4989509;28;20046;-75
2023/06/11 04:45:07;;;;;;;12.43;9.77;;;;;;;;;;4997641;28;20046;-74
2023/06/11 04:47:34;;;;;;;12.50;9.82;;;;;;;;;;4997877;28;20034;-73
2023/06/11 04:50:04;;;;;;;14.05;10.18;;;;;;;;;;4997714;28;20050;-75
2023/06/11 04:52:31;;;;;;;13.75;10.00;;;;;;;;;;4995543;28;20046;-75
2023/06/11 04:54:58;;;;;;;11.20;9.73;;;;;;;;;;5001391;28;20042;-74
2023/06/11 04:57:25;;;;;;;14.23;9.65;;;;;;;;;;5002991;28;20054;-74
2023/06/11 04:59:51;;;;;;;11.70;9.50;;;;;;;;;;4995484;28;20046;-75
2023/06/11 05:02:17;;;;;;;14.35;9.65;;;;;;;;;;5001931;28;20052;-75
2023/06/11 05:04:43;;;;;;;13.27;10.25;;;;;;;;;;4995726;28;20057;-75
2023/06/11 05:07:10;;;;;;;13.75;10.20;;;;;;;;;;4995006;28;20089;-74
2023/06/11 05:09:39;;;;;;;13.13;10.10;;;;;;;;;;4994238;28;20108;-74
2023/06/11 05:12:06;;;;;;;11.80;9.88;;;;;;;;;;4996733;28;20672;-75
2023/06/11 05:14:32;;;;;;;12.88;9.82;;;;;;;;;;4993766;28;20100;-75
2023/06/11 05:16:59;;;;;;;12.32;9.90;;;;;;;;;;4995674;28;20411;-74
2023/06/11 05:19:26;;;;;;;12.10;9.77;;;;;;;;;;4997282;28;20049;-74
2023/06/11 05:21:52;;;;;;;11.75;9.98;;;;;;;;;;4996910;28;20058;-74
2023/06/11 05:24:21;;;;;;;13.65;9.35;;;;;;;;;;5000087;28;20472;-75
2023/06/11 05:26:47;;;;;;;12.55;10.00;;;;;;;;;;4995717;28;20115;-74
2023/06/11 05:29:13;;;;;;;22.20;10.70;;;;;;;;;;4995946;28;20103;-75
2023/06/11 05:31:39;;;;;;;12.50;9.70;;;;;;;;;;4990928;28;20050;-73
2023/06/11 05:34:05;;;;;;;11.85;9.50;;;;;;;;;;4999011;28;20110;-74
2023/06/11 05:36:32;;;;;;;12.63;9.18;;;;;;;;;;4995768;28;20062;-74
2023/06/11 05:38:58;;;;;;;11.23;8.63;;;;;;;;;;4991162;28;20181;-74
2023/06/11 05:41:24;;;;;;;13.00;9.77;;;;;;;;;;4997205;28;20050;-74
2023/06/11 05:43:50;;;;;;;15.05;9.40;;;;;;;;;;4994276;28;20051;-74
2023/06/11 05:46:16;;;;;;;12.27;8.93;;;;;;;;;;4986311;28;20562;-75
2023/06/11 05:48:43;;;;;;;11.65;9.05;;;;;;;;;;4997763;28;20050;-74
2023/06/11 05:51:10;;;;;;;11.95;8.98;;;;;;;;;;4987042;28;20043;-75
2023/06/11 05:53:36;;;;;;;11.70;8.48;;;;;;;;;;4994875;28;20051;-75
2023/06/11 05:56:04;;;;;;;11.50;8.30;;;;;;;;;;4989444;28;20054;-74
2023/06/11 05:58:32;;;;;;;11.55;8.27;;;;;;;;;;4996360;28;20054;-74
2023/06/11 06:01:02;;;;;;;10.30;8.23;;;;;;;;;;4996409;28;20050;-73
2023/06/11 06:03:28;;;;;;;12.70;8.10;;;;;;;;;;4996206;28;20034;-74
2023/06/11 06:05:55;;;;;;;16.20;8.77;;;;;;;;;;4992511;28;20090;-74
2023/06/11 06:08:21;;;;;;;12.45;8.05;;;;;;;;;;4991460;28;20046;-73
2023/06/11 06:10:47;;;;;;;13.75;8.23;;;;;;;;;;4993035;28;20054;-75
2023/06/11 06:13:13;;;;;;;10.75;8.05;;;;;;;;;;4992799;28;20042;-75
2023/06/11 06:15:39;;;;;;;9.98;7.43;;;;;;;;;;4991042;28;20457;-74
2023/06/11 06:18:05;;;;;;;11.05;7.68;;;;;;;;;;4992729;28;20093;-74
2023/06/11 06:20:31;;;;;;;11.32;7.45;;;;;;;;;;4993261;28;20084;-75
2023/06/11 06:22:57;;;;;;;9.65;7.20;;;;;;;;;;4998750;28;20054;-73
2023/06/11 06:25:24;;;;;;;9.73;7.75;;;;;;;;;;4995716;28;20107;-74
2023/06/11 06:27:50;;;;;;;10.13;7.30;;;;;;;;;;4990132;28;20050;-74
2023/06/11 06:30:17;;;;;;;12.82;7.78;;;;;;;;;;4998357;28;20087;-75
2023/06/11 06:32:43;;;;;;;9.80;6.93;;;;;;;;;;4988883;28;20050;-74
2023/06/11 06:35:09;;;;;;;10.15;7.22;;;;;;;;;;4991346;28;20461;-75
2023/06/11 06:37:36;;;;;;;9.02;7.15;;;;;;;;;;4993354;28;20049;-76
2023/06/11 06:40:03;;;;;;;11.85;7.57;;;;;;;;;;4994954;28;20046;-75
2023/06/11 06:42:29;;;;;;;11.63;7.45;;;;;;;;;;4994687;28;20035;-75
2023/06/11 06:44:55;;;;;;;10.40;7.22;;;;;;;;;;4990485;28;20412;-74
2023/06/11 06:47:22;;;;;;;11.40;7.93;;;;;;;;;;4992547;28;20046;-75
2023/06/11 06:49:48;;;;;;;11.07;7.45;;;;;;;;;;4999675;28;20061;-74
2023/06/11 06:52:14;;;;;;;8.82;7.00;;;;;;;;;;4986426;28;20038;-75
2023/06/11 06:54:41;;;;;;;10.95;7.70;;;;;;;;;;4997515;28;20081;-73
2023/06/11 06:57:09;;;;;;;10.10;7.47;;;;;;;;;;4998519;28;20149;-74
2023/06/11 06:59:35;;;;;;;13.70;6.93;;;;;;;;;;4998927;28;20505;-75
2023/06/11 07:02:01;;;;;;;10.15;7.15;;;;;;;;;;4998142;28;20527;-75
2023/06/11 07:04:27;;;;;;;13.07;7.10;;;;;;;;;;4992673;28;20046;-74
2023/06/11 07:06:53;;;;;;;9.70;7.28;;;;;;;;;;4990405;28;20054;-74
2023/06/11 07:09:19;;;;;;;11.73;7.22;;;;;;;;;;4981840;28;20057;-73
2023/06/11 07:11:47;;;;;;;9.98;7.47;;;;;;;;;;4994039;28;20046;-74
2023/06/11 07:14:13;;;;;;;11.27;7.20;;;;;;;;;;4990220;28;20061;-74
2023/06/11 07:16:39;;;;;;;9.98;7.43;;;;;;;;;;4989265;28;20109;-74
2023/06/11 07:19:05;;;;;;;10.10;7.80;;;;;;;;;;4987366;28;20043;-73
2023/06/11 07:21:32;;;;;;;11.23;7.65;;;;;;;;;;4984599;28;20042;-74
2023/06/11 07:23:58;;;;;;;8.88;7.38;;;;;;;;;;4991434;28;20051;-74
2023/06/11 07:26:25;;;;;;;9.70;6.60;;;;;;;;;;4984985;28;20050;-74
2023/06/11 07:28:51;;;;;;;9.77;7.03;;;;;;;;;;4983631;28;20054;-73
2023/06/11 07:31:17;;;;;;;9.48;6.70;;;;;;;;;;4996374;28;20109;-73
2023/06/11 07:33:44;;;;;;;11.38;6.93;;;;;;;;;;4986159;28;20046;-73
2023/06/11 07:36:10;;;;;;;8.50;7.05;;;;;;;;;;4980089;28;20047;-74
2023/06/11 07:38:36;;;;;;;10.65;6.80;;;;;;;;;;4987220;28;20046;-73
2023/06/11 07:41:02;;;;;;;12.13;7.38;;;;;;;;;;4988899;28;20061;-73
2023/06/11 07:43:28;;;;;;;10.98;6.72;;;;;;;;;;4978363;28;20057;-73
2023/06/11 07:45:54;;;;;;;9.98;7.20;;;;;;;;;;4977985;28;20097;-73
2023/06/11 07:48:20;;;;;;;9.65;7.20;;;;;;;;;;4986336;28;20051;-73
2023/06/11 07:50:49;;;;;;;11.07;7.90;;;;;;;;;;4986196;28;20053;-73
2023/06/11 07:53:15;;;;;;;12.25;7.63;;;;;;;;;;4988016;28;20078;-74
2023/06/11 07:55:42;;;;;;;11.50;6.90;;;;;;;;;;4995783;28;20058;-73
2023/06/11 07:58:08;;;;;;;7.57;6.65;;;;;;;;;;4983601;28;20058;-72
2023/06/11 08:00:34;;;;;;;10.75;7.40;;;;;;;;;;4988447;28;20044;-73
2023/06/11 08:03:00;;;;;;;10.55;6.95;;;;;;;;;;4994088;28;20046;-73
2023/06/11 08:05:26;;;;;;;9.70;7.00;;;;;;;;;;4982459;28;20061;-74
2023/06/11 08:07:53;;;;;;;11.40;7.03;;;;;;;;;;4994674;28;20092;-74
2023/06/11 08:10:19;;;;;;;9.48;6.85;;;;;;;;;;5009082;28;20057;-72
2023/06/11 08:12:45;;;;;;;10.95;7.20;;;;;;;;;;4994762;28;20046;-74
2023/06/11 08:15:11;;;;;;;10.68;6.65;;;;;;;;;;4990967;28;20373;-72
2023/06/11 08:17:38;;;;;;;10.95;7.13;;;;;;;;;;4989024;28;20050;-73
2023/06/11 08:20:07;;;;;;;9.38;7.32;;;;;;;;;;4990809;28;20050;-73
2023/06/11 08:22:33;;;;;;;11.63;7.32;;;;;;;;;;4990796;28;20054;-72
2023/06/11 08:24:59;;;;;;;11.65;7.63;;;;;;;;;;4976094;28;20151;-72
2023/06/11 08:27:25;;;;;;;9.65;7.18;;;;;;;;;;4990728;28;20077;-73
2023/06/11 08:29:51;;;;;;;9.10;6.80;;;;;;;;;;4991544;28;20046;-74
2023/06/11 08:32:17;;;;;;;9.20;6.95;;;;;;;;;;4988921;28;20060;-74
2023/06/11 08:34:43;;;;;;;8.98;6.93;;;;;;;;;;4994036;28;20045;-72
2023/06/11 08:37:09;;;;;;;10.38;7.28;;;;;;;;;;4997363;28;20050;-73
2023/06/11 08:39:35;;;;;;;8.82;7.18;;;;;;;;;;4996679;28;20184;-72
2023/06/11 08:42:02;;;;;;;10.27;7.38;;;;;;;;;;4993439;28;20060;-74
2023/06/11 08:44:28;;;;;;;10.32;7.15;;;;;;;;;;4992991;28;20073;-73
2023/06/11 08:46:57;;;;;;;9.60;6.75;;;;;;;;;;4989873;28;20137;-73
2023/06/11 08:49:23;;;;;;;9.33;6.73;;;;;;;;;;4992975;28;20057;-74
2023/06/11 08:51:50;;;;;;;11.38;6.70;;;;;;;;;;4993348;28;20050;-73
2023/06/11 08:54:17;;;;;;;12.43;6.97;;;;;;;;;;4987414;28;20066;-73
2023/06/11 08:56:43;;;;;;;10.55;7.93;;;;;;;;;;4984084;28;20110;-72
2023/06/11 08:59:09;;;;;;;11.55;7.05;;;;;;;;;;4981583;28;20485;-73
2023/06/11 09:01:35;;;;;;;12.48;7.30;;;;;;;;;;4989940;28;20054;-72
2023/06/11 09:04:02;;;;;;;11.95;7.13;;;;;;;;;;4990966;28;20069;-71
2023/06/11 09:06:28;;;;;;;9.20;6.80;;;;;;;;;;4995117;28;20042;-73
2023/06/11 09:09:07;;;;;;;9.30;7.22;;;;;;;;;;4983808;28;20050;-73
2023/06/11 09:11:37;;;;;;;10.20;6.80;;;;;;;;;;4989255;28;20077;-72
2023/06/11 09:14:04;;;;;;;10.98;6.60;;;;;;;;;;4991087;28;20043;-73
2023/06/11 09:16:38;;;;;;;12.55;6.90;;;;;;;;;;4989477;28;20038;-74
2023/06/11 09:19:04;;;;;;;9.30;7.05;;;;;;;;;;4982467;28;20078;-73
2023/06/11 09:21:30;;;;;;;9.18;7.03;;;;;;;;;;4977572;28;20047;-73
2023/06/11 09:24:06;;;;;;;9.43;6.50;;;;;;;;;;4991003;28;20121;-74
2023/06/11 09:26:32;;;;;;;9.27;6.55;;;;;;;;;;4997744;28;20054;-74
2023/06/11 09:29:00;;;;;;;8.48;6.80;;;;;;;;;;4999047;28;20085;-73
2023/06/11 09:31:26;;;;;;;9.23;6.65;;;;;;;;;;4997258;28;20057;-73
2023/06/11 09:34:01;;;;;;;11.43;7.18;;;;;;;;;;4998067;28;20069;-73
2023/06/11 09:36:27;;;;;;;12.75;7.35;;;;;;;;;;4999885;28;20403;-73
2023/06/11 09:38:55;;;;;;;10.63;7.00;;;;;;;;;;5001483;28;20057;-73
2023/06/11 09:41:22;;;;;;;7.60;6.32;;;;;;;;;;4983063;28;20063;-73
2023/06/11 09:43:52;;;;;;;10.52;6.38;;;;;;;;;;4981708;28;20062;-74
2023/06/11 09:46:19;;;;;;;9.48;6.88;;;;;;;;;;4981877;28;20073;-73
2023/06/11 09:48:46;;;;;;;8.40;6.40;;;;;;;;;;4984436;28;20095;-73
2023/06/11 09:51:13;;;;;;;10.32;6.30;;;;;;;;;;5000641;28;20484;-73
2023/06/11 09:53:39;;;;;;;9.43;6.28;;;;;;;;;;5000325;28;20101;-73
2023/06/11 09:56:05;;;;;;;11.18;6.40;;;;;;;;;;5001052;28;20058;-74
2023/06/11 09:58:33;;;;;;;10.23;6.63;;;;;;;;;;4999216;28;20116;-73
2023/06/11 10:01:00;;;;;;;8.63;6.03;;;;;;;;;;5000631;28;20046;-73
2023/06/11 10:03:27;;;;;;;8.45;5.80;;;;;;;;;;4996685;28;20093;-74
2023/06/11 10:05:54;;;;;;;9.27;6.30;;;;;;;;;;4982195;28;20047;-73
2023/06/11 10:08:25;;;;;;;9.45;6.00;;;;;;;;;;4982534;28;20058;-73
2023/06/11 10:10:55;;;;;;;7.43;5.68;;;;;;;;;;4979717;28;20053;-73
2023/06/11 10:13:28;;;;;;;8.60;6.05;;;;;;;;;;4981585;28;20074;-74
2023/06/11 10:15:54;;;;;;;7.03;5.57;;;;;;;;;;4982097;28;20192;-73
2023/06/11 10:18:24;;;;;;;8.85;5.45;;;;;;;;;;4984579;28;20459;-75
2023/06/11 10:20:51;;;;;;;7.35;5.47;;;;;;;;;;5001016;28;20042;-75
2023/06/11 10:23:20;;;;;;;8.95;5.75;;;;;;;;;;4989177;28;20118;-74
2023/06/11 10:25:52;;;;;;;8.48;5.88;;;;;;;;;;4982251;28;20512;-74
2023/06/11 10:28:18;;;;;;;8.57;5.07;;;;;;;;;;4980929;28;20054;-75
2023/06/11 10:30:54;;;;;;;9.25;5.72;;;;;;;;;;4980345;28;20112;-74
2023/06/11 10:33:21;;;;;;;8.00;5.53;;;;;;;;;;4979694;28;20114;-73
2023/06/11 10:35:47;;;;;;;8.45;5.57;;;;;;;;;;4997032;28;20353;-73
2023/06/11 10:38:16;;;;;;;10.93;6.28;;;;;;;;;;4997987;28;20046;-73
2023/06/11 10:40:42;;;;;;;12.15;5.72;;;;;;;;;;4999333;28;20050;-72
2023/06/11 10:43:20;;;;;;;9.30;5.85;;;;;;;;;;4999880;28;20485;-74
2023/06/11 10:45:46;;;;;;;8.68;5.35;;;;;;;;;;5000429;28;20054;-73
2023/06/11 10:48:12;;;;;;;10.65;5.80;;;;;;;;;;5000570;28;20449;-74
2023/06/11 10:50:38;;;;;;;9.00;6.30;;;;;;;;;;4990395;28;20050;-74
2023/06/11 10:53:13;;;;;;;7.45;5.60;;;;;;;;;;4983861;28;20047;-74
2023/06/11 10:55:43;;;;;;;7.35;5.35;;;;;;;;;;4984085;28;20059;-74
2023/06/11 10:58:10;;;;;;;9.73;6.00;;;;;;;;;;4981289;28;20070;-74
2023/06/11 11:00:37;;;;;;;8.43;5.57;;;;;;;;;;4979751;28;20049;-74
2023/06/11 11:03:04;;;;;;;9.13;5.60;;;;;;;;;;4999398;28;20050;-73
2023/06/11 11:05:31;;;;;;;9.00;5.88;;;;;;;;;;4997663;28;20101;-75
2023/06/11 11:07:59;;;;;;;7.47;5.80;;;;;;;;;;4999010;28;20046;-72
2023/06/11 11:10:26;;;;;;;8.75;5.30;;;;;;;;;;5001813;28;20105;-74
2023/06/11 11:12:53;;;;;;;7.53;5.57;;;;;;;;;;5001180;28;20064;-74
2023/06/11 11:15:19;;;;;;;7.78;5.25;;;;;;;;;;4999110;28;20046;-73
2023/06/11 11:17:46;;;;;;;8.98;5.78;;;;;;;;;;5002649;28;20077;-73
2023/06/11 11:20:13;;;;;;;8.15;5.50;;;;;;;;;;5001083;28;20058;-74
2023/06/11 11:22:40;;;;;;;8.27;5.80;;;;;;;;;;5002131;28;20503;-74
2023/06/11 11:25:07;;;;;;;8.65;5.50;;;;;;;;;;5000157;28;20050;-74
2023/06/11 11:27:33;;;;;;;8.95;5.85;;;;;;;;;;5001163;28;20054;-73
2023/06/11 11:30:01;;;;;;;8.80;5.80;;;;;;;;;;5000086;28;20141;-74
2023/06/11 11:32:28;;;;;;;8.48;5.70;;;;;;;;;;4999506;28;20461;-72
2023/06/11 11:34:57;;;;;;;8.73;5.90;;;;;;;;;;4998496;28;20042;-73
2023/06/11 11:37:24;;;;;;;9.23;6.00;;;;;;;;;;5001059;28;20104;-73
2023/06/11 11:39:50;;;;;;;10.73;5.70;;;;;;;;;;4999931;28;20046;-74
2023/06/11 11:42:16;;;;;;;6.90;5.72;;;;;;;;;;5001196;28;20062;-74
2023/06/11 11:44:43;;;;;;;10.30;6.07;;;;;;;;;;4999981;28;20050;-75
2023/06/11 11:47:12;;;;;;;8.60;6.18;;;;;;;;;;4983320;28;20117;-74
2023/06/11 11:49:38;;;;;;;8.68;5.93;;;;;;;;;;5001453;28;20050;-74
2023/06/11 11:52:12;;;;;;;7.97;5.90;;;;;;;;;;5000929;28;20046;-74
2023/06/11 11:54:42;;;;;;;10.02;5.90;;;;;;;;;;5001614;28;20062;-76
2023/06/11 11:57:09;;;;;;;9.00;5.53;;;;;;;;;;4999489;28;20058;-74
2023/06/11 11:59:38;;;;;;;9.63;5.50;;;;;;;;;;4998606;28;20064;-75
2023/06/11 12:02:04;;;;;;;8.75;5.32;;;;;;;;;;4998474;28;20054;-75
2023/06/11 12:04:40;;;;;;;8.52;5.47;;;;;;;;;;5001704;28;20481;-74
2023/06/11 12:07:07;;;;;;;8.65;5.65;;;;;;;;;;5001810;28;20060;-74
2023/06/11 12:09:35;;;;;;;7.90;5.60;;;;;;;;;;5001101;28;20101;-74
2023/06/11 12:12:01;;;;;;;9.45;5.80;;;;;;;;;;5000218;28;20042;-73
2023/06/11 12:14:27;;;;;;;9.25;5.28;;;;;;;;;;4998617;28;20054;-74
2023/06/11 12:16:54;;;;;;;14.05;5.93;;;;;;;;;;5001209;28;20050;-74
2023/06/11 12:19:21;;;;;;;11.27;5.90;;;;;;;;;;4999882;28;20066;-74
2023/06/11 12:21:47;;;;;;;9.05;5.55;;;;;;;;;;4998191;28;20050;-74
2023/06/11 12:24:16;;;;;;;8.98;5.95;;;;;;;;;;4998901;28;20117;-75
2023/06/11 12:26:43;;;;;;;10.15;5.35;;;;;;;;;;5000688;28;20065;-74
2023/06/11 12:29:10;;;;;;;12.75;6.07;;;;;;;;;;5000239;28;20129;-74
2023/06/11 12:31:37;;;;;;;8.95;5.45;;;;;;;;;;5000684;28;20054;-73
2023/06/11 12:34:04;;;;;;;8.85;6.10;;;;;;;;;;5001088;28;20058;-74
2023/06/11 12:36:32;;;;;;;10.88;5.40;;;;;;;;;;4987000;28;20077;-74
2023/06/11 12:38:59;;;;;;;8.55;5.65;;;;;;;;;;4981513;28;20046;-75
2023/06/11 12:41:25;;;;;;;6.97;5.07;;;;;;;;;;4980382;28;20071;-74
2023/06/11 12:43:52;;;;;;;8.77;5.22;;;;;;;;;;4996409;28;20114;-75
2023/06/11 12:46:18;;;;;;;8.93;5.32;;;;;;;;;;5001270;28;20043;-75
2023/06/11 12:48:44;;;;;;;9.05;5.65;;;;;;;;;;5001071;28;20038;-74
2023/06/11 12:51:10;;;;;;;12.20;5.50;;;;;;;;;;5000771;28;20046;-74
2023/06/11 12:53:37;;;;;;;9.68;5.90;;;;;;;;;;5001311;28;20369;-74
2023/06/11 12:56:03;;;;;;;9.40;5.43;;;;;;;;;;4999873;28;20493;-74
2023/06/11 12:58:29;;;;;;;8.80;5.90;;;;;;;;;;5000851;28;20089;-74
2023/06/11 13:00:55;;;;;;;10.05;5.50;;;;;;;;;;5002228;28;20161;-75
2023/06/11 13:03:21;;;;;;;9.65;5.97;;;;;;;;;;5001049;28;20415;-75
2023/06/11 13:05:47;;;;;;;8.43;5.70;;;;;;;;;;5001440;28;20081;-75
2023/06/11 13:08:13;;;;;;;9.48;5.63;;;;;;;;;;5004461;28;20129;-75
2023/06/11 13:10:40;;;;;;;8.55;5.18;;;;;;;;;;5007999;28;20081;-74
2023/06/11 13:13:07;;;;;;;9.52;5.57;;;;;;;;;;5005894;28;20488;-74
2023/06/11 13:15:33;;;;;;;9.60;6.10;;;;;;;;;;5005206;28;20046;-75
2023/06/11 13:17:59;;;;;;;9.85;6.10;;;;;;;;;;5003063;28;20106;-74
2023/06/11 13:20:26;;;;;;;12.27;5.90;;;;;;;;;;5004729;28;20038;-76
2023/06/11 13:22:52;;;;;;;6.78;5.35;;;;;;;;;;5006018;28;20046;-74
2023/06/11 13:25:18;;;;;;;7.40;5.13;;;;;;;;;;5004581;28;20039;-74
2023/06/11 13:27:44;;;;;;;9.63;5.18;;;;;;;;;;5004580;28;20054;-75
2023/06/11 13:30:11;;;;;;;10.55;6.00;;;;;;;;;;5004535;28;20053;-74
2023/06/11 13:32:37;;;;;;;7.40;5.28;;;;;;;;;;5004550;28;20118;-75
2023/06/11 13:35:04;;;;;;;8.38;5.60;;;;;;;;;;5004701;28;20034;-75
2023/06/11 13:37:30;;;;;;;8.75;5.75;;;;;;;;;;5004001;28;20122;-74
2023/06/11 13:39:56;;;;;;;8.07;5.70;;;;;;;;;;4998906;28;20055;-74
2023/06/11 13:42:22;;;;;;;8.45;5.57;;;;;;;;;;4986879;28;20043;-75
2023/06/11 13:44:48;;;;;;;10.23;5.60;;;;;;;;;;4985913;28;20122;-74
2023/06/11 13:47:14;;;;;;;9.43;5.75;;;;;;;;;;4985097;28;20438;-75
2023/06/11 13:49:41;;;;;;;8.02;5.80;;;;;;;;;;4984358;28;20047;-75
2023/06/11 13:52:07;;;;;;;7.85;5.85;;;;;;;;;;4992809;28;20053;-74
2023/06/11 13:54:33;;;;;;;10.27;6.20;;;;;;;;;;5003523;28;20057;-74
2023/06/11 13:56:59;;;;;;;8.23;5.95;;;;;;;;;;5004199;28;20062;-73
2023/06/11 13:59:25;;;;;;;9.77;5.95;;;;;;;;;;5004749;28;20050;-74
2023/06/11 14:01:54;;;;;;;9.10;5.60;;;;;;;;;;5004255;28;20129;-75
2023/06/11 14:04:20;;;;;;;10.05;6.03;;;;;;;;;;5003393;28;20045;-74
2023/06/11 14:06:46;;;;;;;7.70;5.60;;;;;;;;;;5002740;28;20057;-73
2023/06/11 14:09:13;;;;;;;10.38;5.95;;;;;;;;;;5003482;28;20057;-75
2023/06/11 14:11:39;;;;;;;12.77;5.53;;;;;;;;;;5002251;28;20058;-74
2023/06/11 14:14:05;;;;;;;8.02;5.72;;;;;;;;;;4999698;28;20138;-75
2023/06/11 14:16:31;;;;;;;9.60;5.60;;;;;;;;;;5000346;28;20092;-74
2023/06/11 14:18:57;;;;;;;7.80;5.55;;;;;;;;;;4999699;28;20093;-74
2023/06/11 14:21:24;;;;;;;8.32;5.40;;;;;;;;;;4997935;28;20050;-74
2023/06/11 14:23:50;;;;;;;12.52;5.60;;;;;;;;;;5001973;28;20049;-74
2023/06/11 14:26:17;;;;;;;9.40;5.70;;;;;;;;;;5002384;28;20057;-74
2023/06/11 14:28:43;;;;;;;8.52;5.57;;;;;;;;;;5002961;28;20129;-74
2023/06/11 14:31:09;;;;;;;10.35;6.10;;;;;;;;;;5003509;28;20074;-74